Time;durP1;ratioP1;P1;durP2;ratioP2;P2;SDS_P1;SDS_P2;PMS_P1;PMS_P2;Temp;Humidity;BMP_temperature;BMP_pressure;BME280_temperature;BME280_humidity;BME280_pressure;Samples;Min_cycle;Max_cycle;Signal;HPM_P1;HPM_P2
2022/06/25 00:01:10;;;;;;;1.73;1.63;;;;;;;16.83;88.08;97760.88;4961065;28;20058;-92
2022/06/25 00:03:36;;;;;;;1.98;1.80;;;;;;;16.82;87.54;97775.97;4958511;28;20035;-89
2022/06/25 00:06:03;;;;;;;2.47;2.10;;;;;;;16.76;87.78;97766.34;4979611;28;20038;-89
2022/06/25 00:08:29;;;;;;;2.30;1.65;;;;;;;16.81;87.43;97768.28;4976218;28;20071;-93
2022/06/25 00:10:55;;;;;;;1.70;1.60;;;;;;;16.77;87.53;97757.34;4993958;28;20030;-94
2022/06/25 00:13:21;;;;;;;2.00;1.58;;;;;;;16.82;88.52;97770.66;4988770;28;20082;-89
2022/06/25 00:15:50;;;;;;;1.80;1.70;;;;;;;16.83;87.39;97759.00;4976519;28;20055;-91
2022/06/25 00:18:17;;;;;;;2.72;1.80;;;;;;;16.80;87.60;97766.69;4991113;28;20479;-90
2022/06/25 00:20:44;;;;;;;1.45;1.35;;;;;;;16.87;87.93;97769.13;4968604;28;20042;-87
2022/06/25 00:23:10;;;;;;;1.83;1.73;;;;;;;16.85;88.01;97767.53;4991080;28;20039;-91
2022/06/25 00:25:39;;;;;;;1.30;1.20;;;;;;;16.76;88.70;97750.47;4990488;28;20462;-88
2022/06/25 00:28:06;;;;;;;2.00;1.90;;;;;;;16.79;87.43;97765.88;4978009;28;20038;-92
2022/06/25 00:30:37;;;;;;;1.65;1.42;;;;;;;16.85;88.56;97767.53;4991987;28;20494;-91
2022/06/25 00:33:03;;;;;;;;;;;;;;;16.95;89.19;97784.56;4980519;28;20105;-90
2022/06/25 00:35:31;;;;;;;1.10;1.10;;;;;;;16.96;89.59;97791.47;4956720;28;19996;-88
2022/06/25 00:37:56;;;;;;;1.77;1.65;;;;;;;16.84;88.12;97783.66;4973132;28;20493;-90
2022/06/25 00:40:22;;;;;;;1.75;1.17;;;;;;;16.91;87.69;97780.81;4989918;28;20038;-89
2022/06/25 00:42:51;;;;;;;2.58;1.90;;;;;;;16.88;88.67;97783.97;4998115;28;20129;-90
2022/06/25 00:45:19;;;;;;;2.40;2.20;;;;;;;16.80;87.31;97791.31;4971382;28;20027;-93
2022/06/25 00:47:45;;;;;;;2.22;1.80;;;;;;;16.69;88.67;97776.31;4953425;29;20082;-88
2022/06/25 00:50:11;;;;;;;1.55;1.45;;;;;;;16.78;89.63;97787.28;4957264;28;20483;-88
2022/06/25 00:52:42;;;;;;;1.50;1.40;;;;;;;16.87;88.99;97791.13;4972431;28;20035;-88
2022/06/25 00:55:12;;;;;;;2.58;2.17;;;;;;;16.70;89.40;97793.00;4977005;28;20062;-88
2022/06/25 00:57:41;;;;;;;1.60;1.50;;;;;;;16.68;89.68;97779.22;4989327;28;20035;-88
2022/06/25 01:00:14;;;;;;;1.60;1.50;;;;;;;16.73;88.61;97789.88;4973539;28;20486;-87
2022/06/25 01:02:40;;;;;;;2.83;1.75;;;;;;;16.72;88.76;97786.41;4998935;28;20110;-89
2022/06/25 01:05:12;;;;;;;1.73;1.63;;;;;;;16.79;89.37;97792.38;4973038;28;20114;-88
2022/06/25 01:07:39;;;;;;;1.50;1.40;;;;;;;16.73;87.75;97788.06;5005844;28;20042;-88
2022/06/25 01:10:12;;;;;;;1.90;1.80;;;;;;;16.78;88.10;97801.31;5004140;28;20049;-89
2022/06/25 01:12:42;;;;;;;3.15;2.00;;;;;;;16.73;89.06;97796.00;4988164;28;20376;-89
2022/06/25 01:15:20;;;;;;;1.60;1.50;;;;;;;16.82;88.27;97797.16;4988761;28;20043;-90
2022/06/25 01:17:51;;;;;;;3.30;1.17;;;;;;;16.84;88.64;97797.69;4972171;28;20038;-89
2022/06/25 01:20:20;;;;;;;1.70;1.60;;;;;;;16.90;88.36;97803.06;4971438;28;20031;-89
2022/06/25 01:22:47;;;;;;;1.95;1.73;;;;;;;16.85;88.10;97799.31;4987763;28;20039;-90
2022/06/25 01:25:16;;;;;;;1.48;1.38;;;;;;;16.85;87.24;97804.63;4971688;28;20038;-89
2022/06/25 01:27:42;;;;;;;1.65;1.20;;;;;;;17.03;87.32;97808.81;4988060;28;20038;-90
2022/06/25 01:30:13;;;;;;;2.08;1.90;;;;;;;16.91;87.09;97810.75;4985717;28;20524;-89
2022/06/25 01:32:39;;;;;;;2.10;1.50;;;;;;;17.01;87.02;97820.66;4977517;28;20509;-90
2022/06/25 01:35:08;;;;;;;1.63;1.52;;;;;;;17.02;87.46;97809.03;4975253;28;20038;-90
2022/06/25 01:37:35;;;;;;;1.60;1.50;;;;;;;17.05;86.88;97814.63;4997150;28;20510;-89
2022/06/25 01:40:01;;;;;;;1.92;1.20;;;;;;;17.19;87.90;97824.84;4982176;28;20070;-91
2022/06/25 01:45:13;;;;;;;1.30;1.20;;;;;;;17.16;87.89;97818.22;4987981;28;20461;-90
2022/06/25 01:47:39;;;;;;;1.10;1.10;;;;;;;17.15;87.04;97818.44;4990509;28;20122;-90
2022/06/25 01:50:09;;;;;;;1.10;1.10;;;;;;;17.13;87.85;97824.78;4970678;28;20062;-90
2022/06/25 01:52:35;;;;;;;1.40;1.30;;;;;;;17.24;86.90;97833.66;4972160;28;20034;-90
2022/06/25 01:55:01;;;;;;;1.40;1.30;;;;;;;17.15;87.06;97826.38;4999742;28;20109;-89
2022/06/25 01:57:27;;;;;;;1.63;1.52;;;;;;;17.08;86.67;97827.38;4980706;28;20049;-89
2022/06/25 01:59:55;;;;;;;1.45;1.35;;;;;;;17.19;86.25;97856.66;4984581;28;20115;-88
2022/06/25 02:02:20;;;;;;;0.90;0.90;;;;;;;17.09;87.58;97833.47;4991364;28;20577;-88
2022/06/25 02:04:46;;;;;;;1.50;1.40;;;;;;;17.15;87.35;97831.69;4980778;28;20027;-88
2022/06/25 02:07:12;;;;;;;1.75;1.65;;;;;;;17.06;86.71;97839.28;4989507;28;20065;-88
2022/06/25 02:09:37;;;;;;;1.27;1.20;;;;;;;17.08;86.92;97832.69;4972849;28;20047;-88
2022/06/25 02:12:13;;;;;;;2.13;1.58;;;;;;;17.06;87.39;97845.38;4964009;28;20030;-88
2022/06/25 02:14:39;;;;;;;1.77;1.67;;;;;;;17.05;86.98;97848.28;4986653;28;20039;-88
2022/06/25 02:17:05;;;;;;;1.40;1.30;;;;;;;16.96;87.43;97837.31;4986659;28;20030;-87
2022/06/25 02:19:30;;;;;;;1.77;1.30;;;;;;;17.03;87.17;97839.75;4970758;28;20072;-88
2022/06/25 02:21:56;;;;;;;1.85;1.75;;;;;;;17.01;87.67;97849.81;4996177;28;20566;-87
2022/06/25 02:24:22;;;;;;;1.40;1.30;;;;;;;16.83;87.36;97822.59;4971726;28;20038;-88
2022/06/25 02:26:47;;;;;;;2.20;1.92;;;;;;;17.05;87.40;97850.94;4970845;28;20085;-87
2022/06/25 02:29:13;;;;;;;2.25;2.05;;;;;;;16.85;87.14;97844.34;4971538;28;20038;-87
2022/06/25 02:31:38;;;;;;;1.60;1.50;;;;;;;16.95;87.26;97848.16;5012799;28;20041;-87
2022/06/25 02:34:04;;;;;;;1.52;1.42;;;;;;;16.94;87.54;97847.34;4985748;28;20688;-87
2022/06/25 02:36:30;;;;;;;1.20;1.20;;;;;;;16.95;87.12;97850.81;4977661;28;20031;-88
2022/06/25 02:38:55;;;;;;;0.73;0.73;;;;;;;17.04;88.05;97849.34;5006108;28;20050;-88
2022/06/25 02:41:23;;;;;;;1.30;1.20;;;;;;;17.13;87.03;97850.50;4972458;28;20097;-88
2022/06/25 02:43:49;;;;;;;0.80;0.80;;;;;;;16.99;87.19;97834.19;4972053;28;20030;-87
2022/06/25 02:46:15;;;;;;;1.35;1.10;;;;;;;17.11;88.17;97847.28;5002726;28;20058;-87
2022/06/25 02:48:40;;;;;;;1.23;1.17;;;;;;;17.20;87.83;97856.41;4969947;28;20031;-87
2022/06/25 02:51:06;;;;;;;1.20;1.02;;;;;;;17.10;88.34;97840.41;4989616;28;20035;-88
2022/06/25 02:53:31;;;;;;;1.40;1.30;;;;;;;17.17;87.74;97846.31;4970314;28;20557;-88
2022/06/25 02:58:56;;;;;;;2.55;2.00;;;;;;;16.96;86.32;97855.03;4993732;28;20109;-87
2022/06/25 03:01:28;;;;;;;2.08;1.98;;;;;;;16.95;86.00;97858.75;4986860;28;20060;-87
2022/06/25 03:03:55;;;;;;;2.30;2.10;;;;;;;16.81;86.33;97868.91;4988788;28;20046;-88
2022/06/25 03:06:22;;;;;;;2.58;2.38;;;;;;;16.64;86.03;97850.38;4999853;28;20703;-87
2022/06/25 03:08:49;;;;;;;1.48;1.38;;;;;;;16.85;88.29;97865.53;4993019;28;20042;-88
2022/06/25 03:11:15;;;;;;;1.10;1.10;;;;;;;16.90;87.55;97853.38;4997637;28;20049;-87
2022/06/25 03:13:41;;;;;;;1.15;1.05;;;;;;;17.04;88.46;97858.09;4995728;28;20038;-88
2022/06/25 03:16:08;;;;;;;1.00;1.00;;;;;;;17.03;88.83;97843.25;4979452;28;20089;-88
2022/06/25 03:18:36;;;;;;;1.02;0.98;;;;;;;17.16;88.29;97865.91;4993553;28;20106;-89
2022/06/25 03:21:02;;;;;;;1.08;0.98;;;;;;;17.26;88.38;97871.31;4973450;28;20031;-90
2022/06/25 03:23:28;;;;;;;1.20;1.20;;;;;;;17.27;87.66;97857.03;4989378;28;20047;-85
2022/06/25 03:25:54;;;;;;;1.10;1.10;;;;;;;17.35;86.39;97874.34;4973092;28;20860;-85
2022/06/25 03:28:20;;;;;;;0.80;0.80;;;;;;;17.41;86.86;97883.94;4998349;28;20031;-85
2022/06/25 03:30:46;;;;;;;0.93;0.93;;;;;;;17.35;87.12;97875.13;4985427;28;20105;-85
2022/06/25 03:33:12;;;;;;;0.93;0.93;;;;;;;17.36;87.50;97863.47;4980643;28;20038;-86
2022/06/25 03:35:38;;;;;;;1.05;1.05;;;;;;;17.43;87.66;97865.13;4983731;28;20137;-86
2022/06/25 03:38:04;;;;;;;0.90;0.90;;;;;;;17.53;86.98;97878.50;4976209;28;20042;-86
2022/06/25 03:40:30;;;;;;;0.82;0.82;;;;;;;17.52;86.56;97871.59;4991022;28;20522;-86
2022/06/25 03:42:56;;;;;;;0.90;0.90;;;;;;;17.57;85.44;97884.88;4993605;28;20056;-86
2022/06/25 03:45:21;;;;;;;1.00;1.00;;;;;;;17.58;86.53;97883.88;5000143;28;20035;-85
2022/06/25 03:47:50;;;;;;;0.80;0.80;;;;;;;17.54;87.79;97872.16;4973687;28;20435;-85
2022/06/25 03:50:18;;;;;;;1.75;1.63;;;;;;;17.58;85.16;97891.81;4989217;28;20046;-88
2022/06/25 03:52:45;;;;;;;0.98;0.98;;;;;;;17.54;85.88;97886.19;4977887;28;20030;-87
2022/06/25 03:55:11;;;;;;;1.10;0.95;;;;;;;17.63;86.32;97891.84;4967892;28;20379;-86
2022/06/25 03:57:37;;;;;;;1.35;1.25;;;;;;;17.55;85.60;97885.16;4973868;28;20030;-86
2022/06/25 04:00:08;;;;;;;1.58;1.20;;;;;;;17.46;85.47;97878.69;4973031;28;20391;-86
2022/06/25 04:02:35;;;;;;;1.98;1.42;;;;;;;17.47;84.66;97893.56;4985856;28;20398;-88
2022/06/25 04:05:03;;;;;;;1.73;1.63;;;;;;;17.36;84.48;97897.13;5007276;28;20081;-88
2022/06/25 04:07:29;;;;;;;1.40;1.30;;;;;;;17.43;85.85;97907.56;4980536;28;20506;-88
2022/06/25 04:09:56;;;;;;;2.35;1.67;;;;;;;17.33;83.48;97882.53;4970839;28;20039;-88
2022/06/25 04:12:40;;;;;;;1.63;1.52;;;;;;;17.46;83.52;97907.06;4992641;28;20563;-88
2022/06/25 04:15:15;;;;;;;1.25;1.15;;;;;;;17.55;82.85;97908.22;5000723;28;20109;-87
2022/06/25 04:17:40;;;;;;;2.03;1.50;;;;;;;17.35;83.56;97896.34;4991856;28;20401;-87
2022/06/25 04:20:07;;;;;;;2.55;1.20;;;;;;;17.47;84.09;97913.97;4993411;28;20076;-88
2022/06/25 04:22:32;;;;;;;1.10;0.85;;;;;;;17.51;85.89;97902.63;4993637;28;20050;-87
2022/06/25 04:24:58;;;;;;;1.08;0.98;;;;;;;17.64;86.34;97907.53;4973911;28;20030;-88
2022/06/25 04:30:09;;;;;;;1.38;1.15;;;;;;;17.62;82.62;97906.16;5004011;28;20547;-88
2022/06/25 04:32:34;;;;;;;1.00;1.00;;;;;;;17.62;83.60;97906.16;5008628;28;20100;-88
2022/06/25 04:35:00;;;;;;;3.33;1.80;;;;;;;17.48;82.70;97910.25;4991030;28;20034;-88
2022/06/25 04:37:25;;;;;;;1.77;1.40;;;;;;;17.52;84.45;97927.28;4988086;28;20039;-87
2022/06/25 04:39:51;;;;;;;2.20;1.40;;;;;;;17.45;83.61;97910.75;4985508;28;20126;-88
2022/06/25 04:42:16;;;;;;;1.92;1.10;;;;;;;17.45;84.04;97906.25;4989560;28;20030;-86
2022/06/25 04:44:42;;;;;;;1.08;1.00;;;;;;;17.60;85.63;97921.53;4988216;28;20490;-88
2022/06/25 04:47:09;;;;;;;1.23;1.13;;;;;;;17.64;83.20;97928.75;4988011;28;20114;-87
2022/06/25 04:49:36;;;;;;;4.95;1.80;;;;;;;17.67;82.82;97930.09;4983440;28;20354;-86
2022/06/25 04:52:01;;;;;;;3.55;2.05;;;;;;;17.63;81.45;97918.38;4983377;28;20478;-88
2022/06/25 04:54:27;;;;;;;2.53;2.33;;;;;;;17.55;81.26;97926.78;4987651;28;20125;-88
2022/06/25 04:56:52;;;;;;;1.98;1.77;;;;;;;17.71;82.02;97930.41;4974248;28;20035;-88
2022/06/25 04:59:18;;;;;;;1.38;1.20;;;;;;;17.65;82.48;97926.91;4978883;28;20042;-87
2022/06/25 05:01:45;;;;;;;2.63;2.30;;;;;;;17.57;81.78;97928.16;4982153;28;20054;-87
2022/06/25 05:04:11;;;;;;;2.33;1.58;;;;;;;17.57;82.10;97927.31;4973901;28;20031;-89
2022/06/25 05:06:36;;;;;;;2.00;1.70;;;;;;;17.54;82.39;97935.78;4971914;28;20887;-88
2022/06/25 05:09:02;;;;;;;2.42;2.03;;;;;;;17.43;82.99;97931.41;4968181;28;20050;-90
2022/06/25 05:11:43;;;;;;;2.77;1.40;;;;;;;17.53;83.50;97942.13;4985625;28;20030;-88
2022/06/25 05:14:09;;;;;;;2.10;2.00;;;;;;;17.36;82.72;97932.41;4982829;28;20034;-88
2022/06/25 05:16:34;;;;;;;2.65;2.45;;;;;;;17.36;83.45;97945.66;4967577;28;20047;-88
2022/06/25 05:19:00;;;;;;;2.28;2.08;;;;;;;17.28;83.21;97954.03;4974739;28;20038;-88
2022/06/25 05:21:26;;;;;;;2.63;2.42;;;;;;;17.18;84.34;97943.31;4975325;28;20206;-86
2022/06/25 05:23:51;;;;;;;2.85;2.40;;;;;;;17.13;83.96;97933.44;4974311;28;20495;-88
2022/06/25 05:26:17;;;;;;;2.45;2.25;;;;;;;17.24;84.19;97944.16;4976326;28;20490;-88
2022/06/25 05:28:42;;;;;;;2.28;1.50;;;;;;;17.39;84.84;97933.75;4979763;28;20394;-87
2022/06/25 05:31:08;;;;;;;3.08;2.88;;;;;;;17.29;83.12;97939.75;4987445;28;20030;-89
2022/06/25 05:33:34;;;;;;;2.50;1.75;;;;;;;17.53;83.90;97947.44;4983651;28;20113;-89
2022/06/25 05:35:59;;;;;;;5.00;2.60;;;;;;;17.48;83.16;97942.88;4992151;28;20114;-89
2022/06/25 05:38:25;;;;;;;2.95;2.65;;;;;;;17.48;83.11;97950.03;4985625;28;20085;-86
2022/06/25 05:40:50;;;;;;;1.90;1.80;;;;;;;17.52;84.64;97932.59;4993483;28;20122;-87
2022/06/25 05:43:16;;;;;;;2.63;2.10;;;;;;;17.84;84.12;97952.06;4989273;28;20042;-86
2022/06/25 05:45:42;;;;;;;1.77;1.55;;;;;;;17.98;83.15;97951.66;4973143;28;20046;-87
2022/06/25 05:48:07;;;;;;;2.85;2.58;;;;;;;17.95;80.99;97952.16;5006866;28;20389;-88
2022/06/25 05:50:34;;;;;;;2.55;2.35;;;;;;;18.02;81.69;97958.06;4986570;28;20038;-87
2022/06/25 05:53:00;;;;;;;3.55;3.25;;;;;;;17.70;81.46;97964.09;5006653;28;20037;-87
2022/06/25 05:55:25;;;;;;;2.72;2.53;;;;;;;17.76;81.56;97959.66;4996133;28;20034;-88
2022/06/25 05:57:52;;;;;;;2.25;1.58;;;;;;;18.00;83.68;97957.53;4987428;28;20031;-86
2022/06/25 06:00:18;;;;;;;1.70;1.60;;;;;;;18.27;82.52;97968.91;4970668;28;20062;-88
2022/06/25 06:02:44;;;;;;;1.80;1.70;;;;;;;18.42;81.72;97961.09;4990547;28;20039;-87
2022/06/25 06:05:10;;;;;;;2.05;1.85;;;;;;;18.57;79.48;97964.91;4986848;28;20039;-87
2022/06/25 06:07:36;;;;;;;1.70;1.60;;;;;;;18.57;79.98;97957.75;4971463;28;20115;-85
2022/06/25 06:10:04;;;;;;;2.50;2.30;;;;;;;18.49;78.24;97971.50;4966377;28;20494;-88
2022/06/25 06:12:30;;;;;;;3.75;1.92;;;;;;;18.44;79.40;97960.84;4972687;28;20438;-86
2022/06/25 06:14:55;;;;;;;2.08;1.88;;;;;;;18.45;80.93;97960.56;4986506;28;20065;-88
2022/06/25 06:17:21;;;;;;;4.68;2.63;;;;;;;18.36;79.67;97966.63;4973895;28;20031;-90
2022/06/25 06:19:47;;;;;;;2.85;2.65;;;;;;;18.38;79.86;97975.13;4976211;28;20027;-85
2022/06/25 06:22:12;;;;;;;3.08;2.65;;;;;;;18.28;79.18;97972.38;4994005;28;20059;-87
2022/06/25 06:24:38;;;;;;;2.88;2.08;;;;;;;18.41;80.32;97977.25;4982741;28;20050;-88
2022/06/25 06:27:04;;;;;;;3.38;3.17;;;;;;;18.51;78.65;97981.88;4972728;28;20039;-88
2022/06/25 06:29:30;;;;;;;4.07;2.92;;;;;;;18.44;78.25;97974.91;4987897;28;20031;-89
2022/06/25 06:31:56;;;;;;;2.80;2.60;;;;;;;18.53;78.66;97971.78;4984027;28;20050;-87
2022/06/25 06:34:22;;;;;;;2.97;2.67;;;;;;;18.48;78.02;97961.13;4984553;28;20030;-87
2022/06/25 06:36:47;;;;;;;3.25;3.00;;;;;;;18.64;77.73;97970.81;4978251;28;20042;-87
2022/06/25 06:39:13;;;;;;;3.67;2.70;;;;;;;18.60;77.11;97970.53;4991460;28;20108;-86
2022/06/25 06:41:39;;;;;;;2.45;1.98;;;;;;;18.72;78.32;97965.06;4979831;28;20121;-89
2022/06/25 06:44:05;;;;;;;2.60;2.40;;;;;;;18.86;75.87;97968.09;4974198;28;20035;-86
2022/06/25 06:46:30;;;;;;;2.85;2.65;;;;;;;19.09;75.80;97969.56;4975516;28;20053;-90
2022/06/25 06:48:56;;;;;;;2.65;2.45;;;;;;;19.22;76.10;97971.75;4958008;28;20034;-86
2022/06/25 06:51:22;;;;;;;1.98;1.60;;;;;;;19.46;77.18;97975.59;4979072;28;20046;-88
2022/06/25 06:53:53;;;;;;;2.80;2.60;;;;;;;19.50;75.72;97984.66;4989647;28;20153;-85
2022/06/25 06:56:19;;;;;;;3.05;2.78;;;;;;;19.50;74.40;97963.38;4932616;28;416027;-83
2022/06/25 06:58:44;;;;;;;2.75;2.55;;;;;;;19.48;74.82;97965.47;4974851;28;20545;-84
2022/06/25 07:01:10;;;;;;;2.80;2.60;;;;;;;19.52;73.02;97965.75;4961864;28;20085;-83
2022/06/25 07:03:35;;;;;;;2.60;2.40;;;;;;;19.71;73.03;97979.44;4972491;28;85314;-83
2022/06/25 07:06:01;;;;;;;1.75;1.65;;;;;;;20.14;73.93;97970.22;4987814;28;20643;-86
2022/06/25 07:08:27;;;;;;;2.58;2.38;;;;;;;20.64;71.25;97976.69;4974753;28;20093;-88
2022/06/25 07:10:52;;;;;;;2.13;2.00;;;;;;;20.87;69.00;97975.31;4987389;28;20066;-86
2022/06/25 07:13:18;;;;;;;1.90;1.80;;;;;;;20.99;69.62;97967.84;4974446;28;20034;-85
2022/06/25 07:15:44;;;;;;;1.98;1.88;;;;;;;20.97;70.59;97979.81;4975969;28;20105;-85
2022/06/25 07:18:09;;;;;;;2.78;2.58;;;;;;;20.81;67.30;97987.03;4990265;28;20039;-85
2022/06/25 07:20:35;;;;;;;2.25;1.73;;;;;;;20.67;70.59;97983.31;4987402;28;20050;-88
2022/06/25 07:23:00;;;;;;;2.00;1.90;;;;;;;20.58;69.42;97973.22;4991896;28;20090;-89
2022/06/25 07:25:26;;;;;;;1.90;1.80;;;;;;;20.46;70.34;97962.03;4983120;28;20039;-87
2022/06/25 07:27:52;;;;;;;2.10;1.95;;;;;;;20.69;70.22;97967.84;4974847;28;20034;-85
2022/06/25 07:30:17;;;;;;;1.90;1.50;;;;;;;20.95;72.89;97987.31;4971487;28;20031;-87
2022/06/25 07:32:43;;;;;;;1.70;1.60;;;;;;;20.96;70.75;97984.34;4974619;28;20081;-87
2022/06/25 07:35:09;;;;;;;1.80;1.70;;;;;;;21.02;72.19;97977.16;4973729;28;20399;-86
2022/06/25 07:37:37;;;;;;;2.25;1.88;;;;;;;21.38;72.01;97972.56;4989278;28;20038;-86
2022/06/25 07:40:07;;;;;;;1.70;1.60;;;;;;;21.75;66.80;97979.34;4972981;28;20049;-86
2022/06/25 07:42:33;;;;;;;2.10;2.00;;;;;;;22.06;66.42;97977.28;4973778;28;20038;-84
2022/06/25 07:44:59;;;;;;;1.65;1.55;;;;;;;22.31;65.91;97979.84;4973498;28;20046;-86
2022/06/25 07:47:25;;;;;;;2.10;2.00;;;;;;;22.57;64.58;97969.75;4973484;28;20061;-90
2022/06/25 07:52:34;;;;;;;2.00;1.90;;;;;;;22.67;65.73;97964.31;4974638;28;20490;-89
2022/06/25 07:55:03;;;;;;;2.70;2.05;;;;;;;22.47;64.60;97977.84;4972842;28;20089;-89
2022/06/25 07:57:29;;;;;;;2.50;2.30;;;;;;;21.96;64.85;97969.34;4989376;28;20022;-89
2022/06/25 07:59:54;;;;;;;2.53;2.33;;;;;;;21.28;65.17;97973.34;4989337;28;20494;-86
2022/06/25 08:02:20;;;;;;;1.70;1.60;;;;;;;21.34;66.13;97974.16;4974045;28;20089;-87
2022/06/25 08:04:45;;;;;;;1.60;1.50;;;;;;;21.72;69.29;97969.22;4974099;28;20034;-85
2022/06/25 08:07:11;;;;;;;2.05;1.85;;;;;;;22.20;62.59;97975.63;4988634;28;20065;-87
2022/06/25 08:09:37;;;;;;;1.58;1.48;;;;;;;22.41;61.91;97976.28;4970771;28;20070;-86
2022/06/25 08:12:10;;;;;;;1.48;1.38;;;;;;;22.92;64.53;97960.63;4988511;28;20031;-88
2022/06/25 08:14:36;;;;;;;1.55;1.45;;;;;;;23.28;63.18;97970.16;4974176;28;20039;-87
2022/06/25 08:17:02;;;;;;;1.20;1.20;;;;;;;23.45;61.05;97957.91;4972192;28;20061;-86
2022/06/25 08:19:28;;;;;;;1.55;1.30;;;;;;;23.65;61.49;97959.56;4974265;28;20038;-86
2022/06/25 08:21:53;;;;;;;2.40;2.20;;;;;;;23.56;61.03;97961.22;4973561;28;20035;-87
2022/06/25 08:24:19;;;;;;;1.50;1.40;;;;;;;23.51;61.98;97974.72;4988787;28;20118;-86
2022/06/25 08:26:44;;;;;;;1.77;1.67;;;;;;;23.77;61.72;97965.28;4973355;28;20026;-86
2022/06/25 08:29:10;;;;;;;1.60;1.50;;;;;;;23.69;59.42;97965.13;4972200;28;20114;-87
2022/06/25 08:31:35;;;;;;;1.40;1.30;;;;;;;23.72;59.59;97968.03;4973621;28;20498;-85
2022/06/25 08:34:01;;;;;;;2.20;2.10;;;;;;;23.82;58.37;97971.66;4973110;28;20038;-88
2022/06/25 08:36:26;;;;;;;1.60;1.33;;;;;;;24.11;57.69;97969.66;4972466;28;20043;-88
2022/06/25 08:38:52;;;;;;;1.60;1.50;;;;;;;24.10;57.51;97968.03;4972924;28;20042;-86
2022/06/25 08:41:18;;;;;;;2.50;2.30;;;;;;;23.39;58.53;97966.25;4988650;28;20035;-86
2022/06/25 08:43:44;;;;;;;2.13;1.60;;;;;;;23.45;59.08;97967.78;4972887;28;20121;-84
2022/06/25 08:46:10;;;;;;;2.47;2.20;;;;;;;23.48;59.77;97969.91;4972941;28;20561;-86
2022/06/25 08:48:37;;;;;;;1.80;1.70;;;;;;;23.75;59.16;97959.44;4973626;28;20031;-85
2022/06/25 08:51:04;;;;;;;2.10;1.90;;;;;;;23.89;58.22;97961.38;4973000;28;20499;-85
2022/06/25 08:53:33;;;;;;;2.75;2.10;;;;;;;24.02;56.90;97961.47;4986690;28;20034;-86
2022/06/25 08:56:00;;;;;;;2.65;2.25;;;;;;;23.36;59.48;97946.22;4988378;28;20034;-84
2022/06/25 08:58:26;;;;;;;2.58;1.70;;;;;;;23.63;57.52;97969.78;4971542;28;20058;-84
2022/06/25 09:00:52;;;;;;;1.77;1.67;;;;;;;24.08;58.15;97959.50;4973133;28;20454;-86
2022/06/25 09:03:17;;;;;;;2.28;1.70;;;;;;;24.14;56.47;97947.63;4972960;28;20070;-86
2022/06/25 09:05:44;;;;;;;1.73;1.63;;;;;;;23.85;58.74;97955.00;4972052;28;20046;-87
2022/06/25 09:08:13;;;;;;;1.55;1.45;;;;;;;23.82;57.51;97947.56;4955646;28;20109;-90
2022/06/25 09:10:43;;;;;;;1.17;1.17;;;;;;;24.25;62.50;97942.91;4985545;28;20038;-87
2022/06/25 09:13:11;;;;;;;1.13;1.13;;;;;;;24.37;60.66;97958.56;4973633;28;20117;-87
2022/06/25 09:15:44;;;;;;;1.42;1.30;;;;;;;24.40;58.63;97960.66;4972527;28;20038;-84
2022/06/25 09:18:17;;;;;;;2.13;1.95;;;;;;;24.53;55.49;97943.84;4987372;28;20474;-85
2022/06/25 09:21:07;;;;;;;1.30;1.20;;;;;;;24.70;54.68;97954.78;4971191;28;20090;-86
2022/06/25 09:23:57;;;;;;;1.00;1.00;;;;;;;24.98;57.41;97949.47;4965626;28;20495;-93
2022/06/25 09:26:22;;;;;;;2.08;1.58;;;;;;;24.59;53.51;97942.66;4955565;28;20027;-86
2022/06/25 09:28:48;;;;;;;1.38;1.38;;;;;;;24.60;54.55;97944.25;4972297;28;20061;-86
2022/06/25 09:31:34;;;;;;;2.10;1.70;;;;;;;24.24;53.78;97942.13;4972565;28;20050;-87
2022/06/25 09:34:06;;;;;;;1.90;1.80;;;;;;;23.54;54.09;97960.75;4972179;28;20062;-84
2022/06/25 09:36:31;;;;;;;1.50;1.40;;;;;;;23.70;56.94;97962.19;4987484;28;20034;-84
2022/06/25 09:38:57;;;;;;;1.63;1.52;;;;;;;23.96;58.42;97959.13;4972409;28;20047;-86
2022/06/25 09:41:24;;;;;;;1.10;1.00;;;;;;;24.51;54.59;97954.81;4972569;28;20038;-91
2022/06/25 09:43:51;;;;;;;0.93;0.93;;;;;;;24.92;56.20;97950.66;4988177;28;20030;-87
2022/06/25 09:46:17;;;;;;;1.80;1.70;;;;;;;24.56;52.69;97946.72;4968079;28;20510;-88
2022/06/25 09:48:44;;;;;;;1.23;1.13;;;;;;;24.66;53.05;97931.56;4972384;28;21513;-91
2022/06/25 09:51:23;;;;;;;1.52;1.40;;;;;;;24.82;53.52;97941.69;4955268;28;20062;-87
2022/06/25 09:54:03;;;;;;;1.20;1.20;;;;;;;25.03;52.04;97941.34;4968360;28;20031;-89
2022/06/25 09:56:33;;;;;;;0.80;0.80;;;;;;;25.23;50.99;97934.78;4971718;28;20039;-89
2022/06/25 09:59:00;;;;;;;1.30;1.20;;;;;;;24.86;50.76;97931.19;4949789;28;20368;-87
2022/06/25 10:01:32;;;;;;;1.50;1.40;;;;;;;24.45;52.10;97936.44;4956581;28;20133;-87
2022/06/25 10:04:03;;;;;;;1.60;1.30;;;;;;;23.93;54.15;97946.31;4972160;28;20031;-87
2022/06/25 10:06:35;;;;;;;1.63;1.52;;;;;;;23.39;55.27;97939.50;4971836;28;20406;-86
2022/06/25 10:09:04;;;;;;;1.40;1.30;;;;;;;23.22;56.08;97938.09;4983466;28;20054;-86
2022/06/25 10:11:34;;;;;;;1.50;1.40;;;;;;;23.65;54.83;97935.47;4972224;28;20043;-87
2022/06/25 10:14:00;;;;;;;1.80;1.20;;;;;;;23.95;54.02;97928.88;4955072;28;20038;-85
2022/06/25 10:16:29;;;;;;;1.63;1.50;;;;;;;24.25;51.60;97938.34;4987350;28;20093;-91
2022/06/25 10:18:55;;;;;;;1.45;1.20;;;;;;;24.54;51.06;97930.13;4984087;28;20488;-87
2022/06/25 10:21:23;;;;;;;0.90;0.90;;;;;;;24.91;50.66;97922.25;4969531;28;20445;-91
2022/06/25 10:24:01;;;;;;;0.80;0.80;;;;;;;25.35;52.29;97921.66;4955555;28;20038;-90
2022/06/25 10:26:27;;;;;;;1.40;1.30;;;;;;;25.33;51.84;97924.66;4968538;28;20038;-88
2022/06/25 10:28:53;;;;;;;1.50;1.40;;;;;;;25.12;50.29;97917.31;4970929;28;20391;-90
2022/06/25 10:31:19;;;;;;;1.00;1.00;;;;;;;25.59;50.45;97926.81;4974031;28;20042;-91
2022/06/25 10:33:58;;;;;;;1.33;1.23;;;;;;;25.65;47.34;97914.06;4983938;28;20387;-88
2022/06/25 10:36:48;;;;;;;1.60;1.50;;;;;;;25.56;47.29;97916.69;4985762;28;20494;-88
2022/06/25 10:39:22;;;;;;;1.20;1.20;;;;;;;25.28;47.70;97918.59;4971260;28;20035;-88
2022/06/25 10:45:03;;;;;;;1.20;1.10;;;;;;;25.78;49.50;97908.69;4972558;28;20114;-93
2022/06/25 10:47:40;;;;;;;1.20;1.10;;;;;;;25.94;46.98;97901.06;4971182;28;20026;-85
2022/06/25 10:50:21;;;;;;;1.23;1.10;;;;;;;26.14;48.09;97907.84;4955336;28;20454;-89
2022/06/25 10:53:02;;;;;;;1.00;1.00;;;;;;;26.12;47.16;97902.00;4987459;28;20070;-92
2022/06/25 10:55:48;;;;;;;1.60;0.93;;;;;;;26.21;48.53;97900.19;4987338;28;20038;-87
2022/06/25 10:58:24;;;;;;;0.80;0.80;;;;;;;26.03;48.98;97888.53;4967771;28;20039;-90
2022/06/25 11:01:00;;;;;;;1.10;0.93;;;;;;;25.71;49.61;97886.00;4970930;28;20031;-91
2022/06/25 11:03:32;;;;;;;0.85;0.85;;;;;;;25.33;49.09;97889.75;4987074;28;20109;-89
2022/06/25 11:06:18;;;;;;;1.23;1.10;;;;;;;24.91;49.32;97872.06;4965982;28;20110;-86
2022/06/25 11:08:45;;;;;;;1.45;1.10;;;;;;;24.65;49.38;97874.44;4969430;28;20050;-88
2022/06/25 11:11:11;;;;;;;0.90;0.82;;;;;;;24.99;53.61;97875.94;4983483;28;20034;-91
2022/06/25 11:13:42;;;;;;;1.40;0.82;;;;;;;25.43;50.14;97879.88;4954330;28;20043;-89
2022/06/25 11:16:15;;;;;;;;;;;;;;;25.68;46.26;97882.03;4965606;28;20034;-89
2022/06/25 11:18:53;;;;;;;1.38;1.30;;;;;;;25.80;46.47;97882.34;4974752;28;20374;-87
2022/06/25 11:21:37;;;;;;;1.40;1.30;;;;;;;25.83;48.00;97879.03;4984510;28;21341;-88
2022/06/25 11:24:25;;;;;;;1.45;1.35;;;;;;;25.87;49.70;97876.53;4974315;28;20041;-90
2022/06/25 11:29:49;;;;;;;1.48;1.08;;;;;;;26.32;45.73;97869.25;4989556;28;20122;-90
2022/06/25 11:32:21;;;;;;;1.60;1.20;;;;;;;26.24;43.71;97861.13;4974231;28;20039;-86
2022/06/25 11:34:55;;;;;;;1.55;1.20;;;;;;;25.95;42.34;97864.25;4974415;28;20037;-87
2022/06/25 11:37:24;;;;;;;1.17;1.10;;;;;;;25.99;43.96;97857.19;4955428;28;20085;-89
2022/06/25 11:39:51;;;;;;;1.38;1.10;;;;;;;26.35;44.01;97863.25;4974299;28;20030;-90
2022/06/25 11:42:17;;;;;;;0.90;0.90;;;;;;;26.56;47.26;97862.75;4972907;28;20027;-87
2022/06/25 11:45:01;;;;;;;0.80;0.80;;;;;;;26.82;44.09;97868.25;4974897;28;20478;-88
2022/06/25 11:47:29;;;;;;;0.90;0.90;;;;;;;26.76;43.24;97851.47;4974667;28;20046;-91
2022/06/25 11:49:55;;;;;;;3.10;1.10;;;;;;;26.84;41.28;97869.53;4989352;28;20038;-89
2022/06/25 11:52:24;;;;;;;1.45;1.00;;;;;;;26.79;47.31;97866.97;4990067;28;20041;-89
2022/06/25 11:54:51;;;;;;;1.33;0.90;;;;;;;26.60;42.19;97847.59;4990427;28;20447;-89